createdAt,value
2023-04-16T00:01:08.419Z,27.60
2023-04-16T00:03:36.437Z,27.70
2023-04-16T00:06:04.471Z,27.80
2023-04-16T00:08:33.506Z,27.80
2023-04-16T00:11:01.188Z,28.00
2023-04-16T00:13:28.839Z,28.10
2023-04-16T00:15:56.680Z,28.20
2023-04-16T00:18:24.364Z,28.20
2023-04-16T00:20:53.439Z,28.30
2023-04-16T00:23:21.196Z,28.40
2023-04-16T00:25:50.292Z,28.50
2023-04-16T00:28:18.208Z,28.60
2023-04-16T00:30:46.092Z,28.70
2023-04-16T00:33:13.815Z,28.80
2023-04-16T00:35:41.536Z,28.80
2023-04-16T00:38:09.710Z,28.90
2023-04-16T00:40:37.428Z,29.00
2023-04-16T00:43:06.429Z,29.00
2023-04-16T00:45:34.128Z,29.10
2023-04-16T00:48:01.914Z,29.20
2023-04-16T00:50:29.734Z,29.30
2023-04-16T00:52:57.971Z,29.30
2023-04-16T00:55:25.802Z,29.40
2023-04-16T00:57:53.894Z,29.50
2023-04-16T01:00:23.084Z,29.60
2023-04-16T01:02:50.952Z,29.70
2023-04-16T01:05:20.011Z,29.80
2023-04-16T01:07:47.729Z,29.80
2023-04-16T01:10:15.400Z,29.90
2023-04-16T01:12:43.209Z,30.00
2023-04-16T01:15:11.727Z,30.10
2023-04-16T01:17:40.957Z,30.20
2023-04-16T01:20:09.422Z,30.30
2023-04-16T01:22:38.421Z,30.40
2023-04-16T01:25:06.858Z,30.40
2023-04-16T01:27:35.379Z,30.50
2023-04-16T01:30:03.033Z,30.60
2023-04-16T01:32:41.359Z,30.70
2023-04-16T01:35:09.140Z,30.80
2023-04-16T01:37:38.157Z,30.80
2023-04-16T01:40:06.809Z,30.90
2023-04-16T01:42:34.544Z,30.90
2023-04-16T01:45:02.211Z,31.00
2023-04-16T01:47:29.976Z,31.00
2023-04-16T01:49:57.670Z,31.10
2023-04-16T01:52:25.429Z,31.20
2023-04-16T01:54:54.450Z,31.20
2023-04-16T01:57:22.115Z,31.30
2023-04-16T01:59:50.649Z,31.30
2023-04-16T02:02:18.473Z,31.30
2023-04-16T02:04:46.504Z,31.40
2023-04-16T02:07:14.455Z,31.40
2023-04-16T02:09:42.306Z,31.40
2023-04-16T02:12:12.294Z,31.50
2023-04-16T02:14:39.959Z,31.50
2023-04-16T02:17:07.799Z,31.50
2023-04-16T02:19:40.724Z,31.50
2023-04-16T02:22:09.909Z,31.50
2023-04-16T02:24:37.653Z,31.50
2023-04-16T02:27:11.071Z,31.50
2023-04-16T02:29:39.377Z,31.50
2023-04-16T02:32:13.989Z,31.50
2023-04-16T02:34:45.344Z,31.50
2023-04-16T02:37:15.205Z,31.60
2023-04-16T02:39:43.820Z,31.50
2023-04-16T02:42:12.848Z,31.50
2023-04-16T02:44:40.590Z,31.50
2023-04-16T02:47:08.297Z,31.50
2023-04-16T02:49:36.606Z,31.50
2023-04-16T02:52:04.451Z,31.50
2023-04-16T02:54:32.189Z,31.50
2023-04-16T02:56:59.911Z,31.40
2023-04-16T02:59:29.017Z,31.40
2023-04-16T03:01:56.994Z,31.40
2023-04-16T03:04:24.800Z,31.40
2023-04-16T03:06:52.509Z,31.30
2023-04-16T03:09:20.245Z,31.30
2023-04-16T03:11:47.946Z,31.30
2023-04-16T03:14:16.559Z,31.20
2023-04-16T03:16:45.582Z,31.20
2023-04-16T03:19:13.447Z,31.20
2023-04-16T03:21:41.170Z,31.10
2023-04-16T03:24:08.841Z,31.20
2023-04-16T03:26:36.560Z,31.10
2023-04-16T03:29:04.240Z,31.10
2023-04-16T03:31:33.435Z,31.00
2023-04-16T03:34:02.872Z,31.00
2023-04-16T03:36:32.528Z,31.00
2023-04-16T03:39:00.429Z,31.00
2023-04-16T03:41:29.141Z,31.00
2023-04-16T03:43:56.993Z,30.90
2023-04-16T03:46:24.716Z,30.90
2023-04-16T03:48:53.794Z,30.90
2023-04-16T03:51:22.823Z,30.80
2023-04-16T03:53:50.936Z,30.80
2023-04-16T03:56:19.559Z,30.70
2023-04-16T03:58:47.240Z,30.70
2023-04-16T04:01:15.269Z,30.70
2023-04-16T04:03:43.292Z,30.70
2023-04-16T04:06:11.124Z,30.60
2023-04-16T04:08:40.150Z,30.60
2023-04-16T04:11:08.248Z,30.60
2023-04-16T04:13:36.844Z,30.60
2023-04-16T04:16:05.527Z,30.50
2023-04-16T04:18:33.536Z,30.50
2023-04-16T04:21:01.253Z,30.50
2023-04-16T04:23:31.162Z,30.50
2023-04-16T04:26:03.483Z,30.40
2023-04-16T04:28:31.216Z,30.40
2023-04-16T04:30:59.901Z,30.40
2023-04-16T04:33:27.760Z,30.40
2023-04-16T04:35:55.797Z,30.30
2023-04-16T04:38:25.232Z,30.30
2023-04-16T04:40:53.640Z,30.30
2023-04-16T04:43:24.547Z,30.20
2023-04-16T04:45:52.310Z,30.20
2023-04-16T04:48:21.541Z,30.20
2023-04-16T04:50:49.273Z,30.20
2023-04-16T04:53:17.299Z,30.10
2023-04-16T04:55:44.985Z,30.10
2023-04-16T04:58:12.692Z,30.10
2023-04-16T05:00:43.824Z,30.00
2023-04-16T05:03:12.787Z,30.00
2023-04-16T05:05:40.565Z,30.00
2023-04-16T05:08:08.274Z,29.90
2023-04-16T05:10:36.356Z,29.90
2023-04-16T05:13:04.083Z,29.90
2023-04-16T05:15:31.746Z,29.80
2023-04-16T05:18:00.911Z,29.80
2023-04-16T05:20:28.842Z,29.80
2023-04-16T05:22:56.543Z,29.70
2023-04-16T05:25:24.388Z,29.70
2023-04-16T05:27:52.128Z,29.70
2023-04-16T05:30:19.970Z,29.70
2023-04-16T05:32:47.731Z,29.60
2023-04-16T05:35:17.600Z,29.60
2023-04-16T05:37:45.559Z,29.60
2023-04-16T05:40:14.417Z,29.60
2023-04-16T05:42:42.126Z,29.60
2023-04-16T05:45:10.687Z,29.50
2023-04-16T05:47:38.421Z,29.50
2023-04-16T05:50:07.121Z,29.50
2023-04-16T05:52:36.144Z,29.50
2023-04-16T05:55:03.792Z,29.40
2023-04-16T05:57:31.497Z,29.40
2023-04-16T05:59:59.203Z,29.40
2023-04-16T06:02:27.095Z,29.30
2023-04-16T06:04:54.858Z,29.30
2023-04-16T06:07:22.554Z,29.30
2023-04-16T06:09:51.546Z,29.30
2023-04-16T06:12:19.316Z,29.30
2023-04-16T06:14:46.992Z,29.20
2023-04-16T06:17:14.674Z,29.20
2023-04-16T06:19:42.365Z,29.20
2023-04-16T06:22:10.252Z,29.20
2023-04-16T06:24:37.938Z,29.20
2023-04-16T06:27:06.940Z,29.10
2023-04-16T06:29:41.035Z,29.10
2023-04-16T06:32:09.571Z,29.10
2023-04-16T06:34:38.090Z,29.00
2023-04-16T06:37:07.151Z,29.00
2023-04-16T06:39:36.097Z,29.00
2023-04-16T06:42:03.794Z,29.00
2023-04-16T06:44:32.790Z,29.00
2023-04-16T06:47:00.595Z,28.90
2023-04-16T06:49:28.322Z,28.90
2023-04-16T06:51:56.179Z,28.90
2023-04-16T06:54:23.851Z,28.90
2023-04-16T06:56:51.584Z,28.80
2023-04-16T06:59:19.254Z,28.80
2023-04-16T07:01:48.317Z,28.80
2023-04-16T07:04:16.090Z,28.80
2023-04-16T07:06:43.803Z,28.80
2023-04-16T07:09:11.760Z,28.70
2023-04-16T07:11:39.637Z,28.70
2023-04-16T07:14:07.314Z,28.70
2023-04-16T07:16:35.044Z,28.60
2023-04-16T07:19:04.045Z,28.60
2023-04-16T07:21:31.775Z,28.60
2023-04-16T07:23:59.447Z,28.60
2023-04-16T07:26:27.168Z,28.50
2023-04-16T07:28:54.876Z,28.50
2023-04-16T07:31:22.581Z,28.50
2023-04-16T07:33:50.340Z,28.50
2023-04-16T07:36:19.305Z,28.40
2023-04-16T07:38:46.975Z,28.40
2023-04-16T07:41:14.643Z,28.40
2023-04-16T07:43:42.404Z,28.40
2023-04-16T07:46:10.090Z,28.40
2023-04-16T07:48:37.832Z,28.30
2023-04-16T07:51:05.540Z,28.70
2023-04-16T07:53:34.584Z,28.80
2023-04-16T07:56:02.261Z,28.90
2023-04-16T07:58:29.931Z,29.10
2023-04-16T08:00:57.621Z,29.30
2023-04-16T08:03:25.829Z,29.30
2023-04-16T08:05:53.678Z,29.40
2023-04-16T08:08:21.392Z,29.50
2023-04-16T08:10:55.484Z,29.70
2023-04-16T08:13:23.865Z,29.90
2023-04-16T08:15:51.696Z,30.20
2023-04-16T08:18:19.884Z,30.30
2023-04-16T08:20:47.584Z,30.50
2023-04-16T08:23:15.553Z,30.80
2023-04-16T08:25:43.206Z,31.00
2023-04-16T08:28:12.176Z,31.10
2023-04-16T08:30:39.886Z,31.20
2023-04-16T08:33:07.663Z,31.30
2023-04-16T08:35:35.393Z,31.30
2023-04-16T08:38:04.682Z,31.20
2023-04-16T08:40:32.423Z,31.10
2023-04-16T08:43:00.335Z,31.10
2023-04-16T08:45:29.480Z,30.90
2023-04-16T08:47:57.193Z,30.80
2023-04-16T08:50:25.981Z,30.80
2023-04-16T08:52:54.239Z,30.80
2023-04-16T08:55:24.228Z,30.70
2023-04-16T08:57:53.460Z,30.50
2023-04-16T09:00:21.497Z,30.20
2023-04-16T09:02:51.643Z,30.20
2023-04-16T09:05:21.287Z,30.30
2023-04-16T09:07:49.349Z,30.20
2023-04-16T09:10:17.379Z,30.10
2023-04-16T09:12:45.331Z,30.10
2023-04-16T09:15:13.495Z,30.10
2023-04-16T09:17:41.310Z,30.20
2023-04-16T09:20:11.095Z,30.20
2023-04-16T09:22:39.945Z,30.20
2023-04-16T09:25:08.219Z,30.40
2023-04-16T09:27:36.166Z,30.50
2023-04-16T09:30:04.777Z,30.40
2023-04-16T09:32:33.810Z,30.40
2023-04-16T09:35:02.215Z,30.50
2023-04-16T09:37:31.828Z,30.40
2023-04-16T09:40:00.374Z,30.50
2023-04-16T09:42:29.244Z,30.50
2023-04-16T09:44:59.731Z,30.40
2023-04-16T09:47:40.911Z,30.40
2023-04-16T09:50:11.314Z,30.60
2023-04-16T09:52:42.994Z,30.60
2023-04-16T09:55:10.726Z,30.70
2023-04-16T09:57:38.672Z,30.70
2023-04-16T10:00:09.012Z,30.80
2023-04-16T10:02:39.014Z,30.90
2023-04-16T10:05:07.748Z,30.80
2023-04-16T10:07:36.428Z,30.70
2023-04-16T10:10:06.123Z,30.60
2023-04-16T10:12:34.008Z,30.70
2023-04-16T10:15:01.719Z,30.90
2023-04-16T10:17:30.333Z,30.80
2023-04-16T10:19:58.813Z,30.90
2023-04-16T10:22:27.092Z,30.90
2023-04-16T10:24:54.934Z,30.90
2023-04-16T10:27:23.995Z,30.90
2023-04-16T10:29:51.758Z,30.90
2023-04-16T10:32:20.731Z,30.70
2023-04-16T10:34:48.520Z,30.70
2023-04-16T10:37:18.084Z,30.70
2023-04-16T10:39:45.909Z,30.70
2023-04-16T10:42:13.814Z,30.70
2023-04-16T10:44:45.205Z,30.70
2023-04-16T10:47:13.621Z,30.50
2023-04-16T10:49:41.606Z,30.50
2023-04-16T10:52:10.729Z,30.50
2023-04-16T10:54:38.558Z,30.50
2023-04-16T10:57:07.361Z,30.40
2023-04-16T10:59:35.957Z,30.50
2023-04-16T11:02:08.828Z,30.50
2023-04-16T11:04:37.399Z,30.50
2023-04-16T11:07:07.408Z,30.40
2023-04-16T11:09:55.462Z,30.40
2023-04-16T11:12:24.077Z,30.40
2023-04-16T11:14:52.520Z,30.40
2023-04-16T11:17:21.964Z,30.40
2023-04-16T11:19:49.811Z,30.40
2023-04-16T11:22:18.494Z,30.40
2023-04-16T11:24:46.960Z,30.40
2023-04-16T11:27:15.192Z,30.40
2023-04-16T11:29:43.952Z,30.30
2023-04-16T11:32:14.461Z,30.40
2023-04-16T11:34:46.862Z,30.30
2023-04-16T11:37:14.637Z,30.20
2023-04-16T11:39:52.200Z,30.20
2023-04-16T11:42:21.222Z,30.20
2023-04-16T11:44:52.515Z,30.00
2023-04-16T11:47:20.426Z,29.90
2023-04-16T11:49:50.187Z,29.70
2023-04-16T11:52:27.544Z,29.70
2023-04-16T11:54:55.293Z,29.60
2023-04-16T11:57:27.488Z,29.40
2023-04-16T12:00:03.035Z,29.40
2023-04-16T12:02:43.929Z,29.40
2023-04-16T12:05:28.575Z,29.30
2023-04-16T12:07:56.380Z,29.30
2023-04-16T12:10:24.131Z,29.40
2023-04-16T12:12:51.844Z,29.30
2023-04-16T12:15:19.597Z,29.20
2023-04-16T12:17:47.803Z,29.20
2023-04-16T12:20:16.152Z,29.40
2023-04-16T12:22:47.285Z,29.30
2023-04-16T12:25:16.462Z,29.20
2023-04-16T12:27:48.017Z,29.20
2023-04-16T12:30:17.070Z,29.40
2023-04-16T12:32:46.682Z,29.40
2023-04-16T12:35:14.537Z,29.30
2023-04-16T12:37:42.218Z,29.20
2023-04-16T12:40:12.050Z,29.10
2023-04-16T12:42:39.709Z,29.10
2023-04-16T12:45:08.155Z,29.00
2023-04-16T12:47:35.990Z,29.20
2023-04-16T12:50:03.770Z,29.40
2023-04-16T12:52:31.468Z,29.40
2023-04-16T12:54:59.279Z,29.50
2023-04-16T12:57:29.306Z,29.50
2023-04-16T12:59:57.298Z,29.60
2023-04-16T13:02:25.300Z,29.60
2023-04-16T13:04:53.183Z,29.70
2023-04-16T13:07:21.157Z,29.70
2023-04-16T13:09:48.942Z,29.70
2023-04-16T13:12:16.634Z,29.70
2023-04-16T13:14:45.763Z,29.70
2023-04-16T13:17:13.444Z,29.70
2023-04-16T13:19:41.107Z,29.70
2023-04-16T13:22:08.981Z,29.70
2023-04-16T13:24:36.678Z,29.80
2023-04-16T13:27:04.537Z,29.90
2023-04-16T13:29:32.220Z,29.90
2023-04-16T13:32:01.326Z,30.00
2023-04-16T13:34:29.043Z,30.90
2023-04-16T13:36:56.857Z,30.50
2023-04-16T13:39:24.583Z,30.50
2023-04-16T13:41:52.288Z,30.40
2023-04-16T13:44:20.007Z,30.40
2023-04-16T13:46:48.069Z,30.40
2023-04-16T13:49:17.126Z,30.40
2023-04-16T13:51:45.182Z,30.50
2023-04-16T13:54:12.937Z,30.70
2023-04-16T13:56:40.738Z,30.70
2023-04-16T13:59:08.684Z,30.90
2023-04-16T14:01:36.586Z,31.00
2023-04-16T14:04:06.794Z,31.00
2023-04-16T14:06:36.282Z,31.10
2023-04-16T14:09:04.694Z,31.10
2023-04-16T14:11:32.389Z,31.10
2023-04-16T14:14:00.126Z,31.30
2023-04-16T14:16:28.276Z,31.30
2023-04-16T14:18:56.437Z,31.50
2023-04-16T14:21:24.122Z,31.50
2023-04-16T14:23:53.260Z,31.50
2023-04-16T14:26:21.007Z,31.50
2023-04-16T14:28:48.924Z,31.40
2023-04-16T14:31:18.100Z,31.80
2023-04-16T14:33:45.832Z,31.70
2023-04-16T14:36:13.550Z,31.70
2023-04-16T14:38:43.150Z,31.70
2023-04-16T14:41:13.346Z,31.80
2023-04-16T14:43:41.263Z,31.80
2023-04-16T14:46:09.077Z,31.80
2023-04-16T14:48:36.820Z,31.70
2023-04-16T14:51:04.559Z,31.70
2023-04-16T14:53:32.348Z,31.70
2023-04-16T14:56:00.006Z,31.70
2023-04-16T14:58:29.079Z,31.70
2023-04-16T15:00:56.826Z,31.60
2023-04-16T15:03:24.691Z,31.60
2023-04-16T15:05:55.640Z,31.50
2023-04-16T15:08:23.581Z,31.50
2023-04-16T15:10:51.507Z,31.40
2023-04-16T15:13:19.297Z,31.20
2023-04-16T15:15:48.410Z,30.80
2023-04-16T15:18:16.283Z,30.50
2023-04-16T15:20:43.968Z,30.10
2023-04-16T15:23:11.637Z,29.70
2023-04-16T15:25:39.323Z,29.50
2023-04-16T15:28:07.004Z,29.30
2023-04-16T15:30:34.696Z,29.20
2023-04-16T15:33:03.779Z,29.10
2023-04-16T15:35:31.573Z,29.00
2023-04-16T15:37:59.410Z,29.00
2023-04-16T15:40:27.108Z,29.00
2023-04-16T15:42:56.012Z,29.00
2023-04-16T15:45:23.921Z,28.90
2023-04-16T15:47:51.890Z,28.80
2023-04-16T15:50:21.047Z,28.70
2023-04-16T15:52:48.788Z,28.60
2023-04-16T15:55:16.556Z,28.50
2023-04-16T15:57:44.233Z,28.40
2023-04-16T16:00:15.657Z,28.40
2023-04-16T16:02:43.621Z,28.30
2023-04-16T16:05:12.150Z,28.20
2023-04-16T16:07:41.294Z,28.20
2023-04-16T16:10:09.831Z,28.10
2023-04-16T16:12:37.758Z,28.10
2023-04-16T16:15:06.469Z,28.10
2023-04-16T16:17:34.228Z,28.00
2023-04-16T16:20:02.092Z,27.90
2023-04-16T16:22:29.955Z,27.90
2023-04-16T16:24:59.124Z,27.80
2023-04-16T16:27:26.893Z,27.80
2023-04-16T16:29:54.548Z,27.70
2023-04-16T16:32:22.278Z,27.70
2023-04-16T16:34:49.950Z,27.60
2023-04-16T16:37:17.914Z,27.50
2023-04-16T16:39:45.747Z,27.50
2023-04-16T16:42:18.656Z,27.50
2023-04-16T16:44:47.612Z,27.80
2023-04-16T16:47:15.390Z,28.00
2023-04-16T16:49:43.093Z,28.10
2023-04-16T16:52:10.848Z,28.10
2023-04-16T16:54:38.496Z,27.70
2023-04-16T16:57:06.190Z,27.40
2023-04-16T16:59:35.435Z,27.20
2023-04-16T17:02:03.608Z,27.00
2023-04-16T17:04:31.355Z,26.80
2023-04-16T17:06:59.198Z,26.70
2023-04-16T17:09:26.932Z,26.50
2023-04-16T17:11:54.635Z,26.40
2023-04-16T17:14:22.360Z,26.30
2023-04-16T17:16:51.587Z,26.20
2023-04-16T17:19:19.611Z,26.20
2023-04-16T17:21:47.272Z,26.10
2023-04-16T17:24:14.966Z,26.00
2023-04-16T17:26:42.628Z,26.00
2023-04-16T17:29:10.612Z,25.90
2023-04-16T17:31:38.322Z,25.90
2023-04-16T17:34:07.313Z,25.90
2023-04-16T17:36:35.197Z,25.80
2023-04-16T17:39:03.235Z,25.80
2023-04-16T17:41:30.994Z,25.70
2023-04-16T17:43:58.698Z,25.70
2023-04-16T17:46:27.040Z,25.60
2023-04-16T17:48:54.739Z,25.60
2023-04-16T17:51:23.796Z,25.50
2023-04-16T17:53:51.843Z,25.50
2023-04-16T17:56:19.515Z,25.40
2023-04-16T17:58:47.189Z,25.40
2023-04-16T18:01:14.899Z,25.40
2023-04-16T18:03:44.343Z,25.40
2023-04-16T18:06:13.288Z,25.30
2023-04-16T18:08:42.300Z,25.40
2023-04-16T18:11:10.090Z,25.30
2023-04-16T18:13:37.855Z,25.30
2023-04-16T18:16:06.948Z,25.30
2023-04-16T18:18:34.688Z,25.30
2023-04-16T18:21:02.361Z,25.30
2023-04-16T18:23:30.060Z,25.20
2023-04-16T18:25:59.094Z,25.20
2023-04-16T18:28:27.273Z,25.20
2023-04-16T18:30:58.594Z,25.20
2023-04-16T18:33:50.062Z,25.20
2023-04-16T18:36:14.412Z,25.10
2023-04-16T18:38:57.102Z,25.10
2023-04-16T18:41:29.875Z,25.10
2023-04-16T18:43:57.650Z,25.10
2023-04-16T18:46:26.602Z,25.10
2023-04-16T18:48:54.424Z,25.10
2023-04-16T18:51:22.098Z,25.00
2023-04-16T18:53:49.765Z,25.00
2023-04-16T18:56:17.424Z,24.90
2023-04-16T18:58:47.591Z,24.90
2023-04-16T19:01:16.299Z,25.00
2023-04-16T19:03:44.088Z,24.90
2023-04-16T19:06:11.819Z,24.90
2023-04-16T19:08:39.498Z,24.80
2023-04-16T19:11:07.178Z,24.80
2023-04-16T19:13:34.916Z,24.80
2023-04-16T19:16:05.955Z,24.80
2023-04-16T19:18:33.683Z,24.80
2023-04-16T19:21:01.431Z,24.80
2023-04-16T19:23:29.268Z,24.80
2023-04-16T19:25:57.152Z,24.80
2023-04-16T19:28:25.044Z,24.70
2023-04-16T19:30:52.861Z,24.70
2023-04-16T19:33:21.988Z,24.70
2023-04-16T19:35:49.727Z,24.70
2023-04-16T19:38:17.432Z,24.70
2023-04-16T19:40:46.198Z,24.70
2023-04-16T19:43:13.862Z,24.60
2023-04-16T19:45:44.658Z,24.60
2023-04-16T19:48:12.412Z,24.60
2023-04-16T19:50:41.748Z,24.60
2023-04-16T19:53:09.561Z,24.60
2023-04-16T19:55:37.360Z,24.60
2023-04-16T19:58:06.795Z,24.60
2023-04-16T20:00:35.004Z,24.60
2023-04-16T20:03:02.767Z,24.60
2023-04-16T20:05:30.510Z,24.60
2023-04-16T20:07:59.509Z,24.60
2023-04-16T20:10:27.709Z,24.60
2023-04-16T20:12:55.392Z,24.60
2023-04-16T20:15:23.072Z,24.60
2023-04-16T20:17:50.752Z,24.60
2023-04-16T20:20:18.585Z,24.60
2023-04-16T20:22:46.390Z,24.60
2023-04-16T20:25:18.414Z,24.60
2023-04-16T20:27:46.088Z,24.60
2023-04-16T20:30:14.818Z,24.60
2023-04-16T20:32:42.580Z,24.60
2023-04-16T20:35:11.045Z,24.60
2023-04-16T20:37:39.113Z,24.60
2023-04-16T20:40:09.128Z,24.60
2023-04-16T20:42:38.150Z,24.60
2023-04-16T20:45:07.142Z,24.60
2023-04-16T20:47:35.404Z,24.60
2023-04-16T20:50:03.809Z,24.50
2023-04-16T20:52:31.468Z,24.50
2023-04-16T20:54:59.122Z,24.50
2023-04-16T20:57:28.006Z,24.50
2023-04-16T20:59:58.363Z,24.50
2023-04-16T21:02:28.058Z,24.40
2023-04-16T21:04:56.157Z,24.50
2023-04-16T21:07:23.840Z,24.40
2023-04-16T21:09:51.559Z,24.40
2023-04-16T21:12:19.347Z,24.40
2023-04-16T21:14:47.013Z,24.40
2023-04-16T21:17:16.278Z,24.40
2023-04-16T21:19:43.953Z,24.40
2023-04-16T21:22:11.618Z,24.30
2023-04-16T21:24:39.299Z,24.40
2023-04-16T21:27:06.979Z,24.30
2023-04-16T21:29:34.666Z,24.40
2023-04-16T21:32:02.368Z,24.30
2023-04-16T21:34:31.394Z,24.40
2023-04-16T21:36:59.180Z,24.30
2023-04-16T21:39:30.742Z,24.30
2023-04-16T21:41:58.534Z,24.30
2023-04-16T21:44:26.240Z,24.30
2023-04-16T21:46:53.973Z,24.30
2023-04-16T21:49:21.740Z,24.30
2023-04-16T21:51:58.854Z,24.30
2023-04-16T21:54:26.551Z,24.40
2023-04-16T21:56:54.188Z,24.30
2023-04-16T21:59:21.908Z,24.30
2023-04-16T22:01:49.642Z,24.40
2023-04-16T22:04:17.737Z,24.40
2023-04-16T22:06:46.168Z,24.40
2023-04-16T22:09:15.387Z,24.40
2023-04-16T22:11:46.377Z,24.40
2023-04-16T22:14:14.614Z,24.40
2023-04-16T22:16:44.695Z,24.40
2023-04-16T22:19:13.280Z,24.40
2023-04-16T22:21:41.230Z,24.40
2023-04-16T22:24:09.004Z,24.40
2023-04-16T22:26:37.998Z,24.40
2023-04-16T22:29:05.749Z,24.40
2023-04-16T22:31:33.559Z,24.50
2023-04-16T22:34:03.361Z,24.50
2023-04-16T22:36:31.728Z,24.50
2023-04-16T22:38:59.385Z,24.50
2023-04-16T22:41:27.096Z,24.50
2023-04-16T22:43:56.050Z,24.50
2023-04-16T22:46:26.111Z,24.50
2023-04-16T22:48:53.914Z,24.50
2023-04-16T22:51:24.198Z,24.50
2023-04-16T22:53:52.263Z,24.50
2023-04-16T22:56:19.974Z,24.60
2023-04-16T22:58:49.194Z,24.60
2023-04-16T23:01:18.271Z,24.60
2023-04-16T23:03:46.285Z,24.60
2023-04-16T23:06:14.040Z,24.60
2023-04-16T23:08:41.730Z,24.60
2023-04-16T23:11:09.395Z,24.60
2023-04-16T23:13:37.263Z,24.60
2023-04-16T23:16:05.365Z,24.60
2023-04-16T23:18:34.399Z,24.60
2023-04-16T23:21:02.111Z,24.60
2023-04-16T23:23:29.810Z,24.70
2023-04-16T23:25:57.509Z,24.70
2023-04-16T23:28:25.237Z,24.70
2023-04-16T23:30:53.495Z,24.70
2023-04-16T23:33:21.602Z,24.70
2023-04-16T23:35:50.581Z,24.70
2023-04-16T23:38:18.258Z,24.70
2023-04-16T23:40:45.889Z,24.80
2023-04-16T23:43:13.615Z,24.80
2023-04-16T23:45:41.422Z,24.80
2023-04-16T23:48:09.109Z,24.80
2023-04-16T23:50:36.764Z,24.80
2023-04-16T23:53:05.765Z,24.90
2023-04-16T23:55:33.449Z,24.90
2023-04-16T23:58:01.162Z,24.90
